createdAt,value
2022-10-26T00:04:58.893Z,29.95
2022-10-26T00:10:22.140Z,26.07
2022-10-26T00:15:47.994Z,30.80
2022-10-26T00:21:12.514Z,27.22
2022-10-26T00:26:35.194Z,27.03
2022-10-26T00:31:58.402Z,28.00
2022-10-26T00:37:20.655Z,29.10
2022-10-26T00:42:42.805Z,24.75
2022-10-26T00:48:12.916Z,31.77
2022-10-26T00:53:36.357Z,36.77
2022-10-26T00:58:59.964Z,26.75
2022-10-26T01:04:23.787Z,31.73
2022-10-26T01:09:46.711Z,34.95
2022-10-26T01:15:10.055Z,38.48
2022-10-26T01:21:00.449Z,36.20
2022-10-26T01:26:33.763Z,36.73
2022-10-26T01:32:13.430Z,29.20
2022-10-26T01:37:42.933Z,23.20
2022-10-26T01:43:09.829Z,24.40
2022-10-26T01:48:35.633Z,23.77
2022-10-26T01:54:00.306Z,23.73
2022-10-26T01:59:30.004Z,29.03
2022-10-26T02:05:19.463Z,41.90
2022-10-26T02:11:05.939Z,47.80
2022-10-26T02:16:32.629Z,37.47
2022-10-26T02:21:59.528Z,27.17
2022-10-26T02:27:34.988Z,24.75
2022-10-26T02:33:01.548Z,27.10
2022-10-26T02:38:26.235Z,19.77
2022-10-26T02:43:52.505Z,22.10
2022-10-26T02:49:15.125Z,19.52
2022-10-26T02:54:47.925Z,20.53
2022-10-26T03:00:13.761Z,22.30
2022-10-26T03:05:42.499Z,20.40
2022-10-26T03:11:04.717Z,18.50
2022-10-26T03:16:27.077Z,18.27
2022-10-26T03:21:49.256Z,19.82
2022-10-26T03:27:11.404Z,20.85
2022-10-26T03:32:33.568Z,18.30
2022-10-26T03:37:55.824Z,26.47
2022-10-26T03:43:17.971Z,26.30
2022-10-26T03:48:40.150Z,18.02
2022-10-26T03:54:02.295Z,18.10
2022-10-26T03:59:24.481Z,18.80
2022-10-26T04:04:46.654Z,30.60
2022-10-26T04:10:08.838Z,26.27
2022-10-26T04:15:32.895Z,24.12
2022-10-26T04:20:55.200Z,24.37
2022-10-26T04:26:18.220Z,26.87
2022-10-26T04:37:03.839Z,42.55
2022-10-26T04:42:26.009Z,48.53
2022-10-26T04:47:48.226Z,60.57
2022-10-26T04:53:11.053Z,63.00
2022-10-26T04:58:33.963Z,58.60
2022-10-26T05:03:57.074Z,63.03
2022-10-26T05:09:19.306Z,45.90
2022-10-26T05:14:41.471Z,40.60
2022-10-26T05:20:05.279Z,48.07
2022-10-26T05:25:27.613Z,37.88
2022-10-26T05:30:51.318Z,50.17
2022-10-26T05:36:14.437Z,50.73
2022-10-26T05:41:37.347Z,36.77
2022-10-26T05:47:00.366Z,34.40
2022-10-26T05:52:22.600Z,32.20
2022-10-26T05:57:45.750Z,32.05
2022-10-26T06:03:28.010Z,29.27
2022-10-26T06:08:50.918Z,31.50
2022-10-26T06:14:13.482Z,22.85
2022-10-26T06:19:58.671Z,31.07
2022-10-26T06:25:25.919Z,21.90
2022-10-26T06:30:48.705Z,26.47
2022-10-26T06:36:30.940Z,18.20
2022-10-26T06:41:55.009Z,27.37
2022-10-26T06:47:29.741Z,28.87
2022-10-26T06:53:02.793Z,20.12
2022-10-26T06:58:29.410Z,20.40
2022-10-26T07:03:51.656Z,23.85
2022-10-26T07:09:13.806Z,20.17
2022-10-26T07:14:36.384Z,15.00
2022-10-26T07:19:58.535Z,20.95
2022-10-26T07:25:21.734Z,13.90
2022-10-26T07:30:45.507Z,15.43
2022-10-26T07:36:09.076Z,17.07
2022-10-26T07:41:31.526Z,14.73
2022-10-26T07:46:53.815Z,14.68
2022-10-26T07:52:16.534Z,26.20
2022-10-26T07:57:39.198Z,12.05
2022-10-26T08:03:02.817Z,15.43
2022-10-26T08:08:25.054Z,19.87
2022-10-26T08:13:47.261Z,15.25
2022-10-26T08:19:10.444Z,19.05
2022-10-26T08:24:33.091Z,17.20
2022-10-26T08:29:55.822Z,20.32
2022-10-26T08:35:19.108Z,15.40
2022-10-26T08:40:48.504Z,15.05
2022-10-26T08:46:15.575Z,22.13
2022-10-26T08:51:42.142Z,17.10
2022-10-26T08:57:07.560Z,19.80
2022-10-26T09:02:31.428Z,20.10
2022-10-26T09:08:13.040Z,19.05
2022-10-26T09:13:49.050Z,22.27
2022-10-26T09:19:35.798Z,18.32
2022-10-26T09:25:07.741Z,19.57
2022-10-26T09:30:37.352Z,18.62
2022-10-26T09:36:13.153Z,17.33
2022-10-26T09:42:06.145Z,25.05
2022-10-26T09:47:39.313Z,21.17
2022-10-26T09:53:03.221Z,18.82
2022-10-26T09:58:30.865Z,19.13
2022-10-26T10:03:54.495Z,21.17
2022-10-26T10:09:37.153Z,18.60
2022-10-26T10:15:11.467Z,19.77
2022-10-26T10:20:38.535Z,21.70
2022-10-26T10:26:05.782Z,20.03
2022-10-26T10:31:46.078Z,20.02
2022-10-26T10:37:08.763Z,20.92
2022-10-26T10:42:41.120Z,18.60
2022-10-26T10:48:14.685Z,19.95
2022-10-26T10:53:44.942Z,19.50
2022-10-26T10:59:24.371Z,20.88
2022-10-26T11:05:30.964Z,23.05
2022-10-26T11:11:13.377Z,18.67
2022-10-26T11:16:46.772Z,19.62
2022-10-26T11:22:27.270Z,21.57
2022-10-26T11:28:00.636Z,23.73
2022-10-26T11:33:39.689Z,24.33
2022-10-26T11:39:08.706Z,33.07
2022-10-26T11:44:54.236Z,22.65
2022-10-26T11:50:33.229Z,25.10
2022-10-26T11:56:04.799Z,23.77
2022-10-26T12:01:30.157Z,25.23
2022-10-26T12:06:53.562Z,24.20
2022-10-26T12:12:31.632Z,23.73
2022-10-26T12:18:54.902Z,20.80
2022-10-26T12:24:39.362Z,24.07
2022-10-26T12:30:22.459Z,23.12
2022-10-26T12:35:56.717Z,21.97
2022-10-26T12:41:37.441Z,30.15
2022-10-26T12:47:00.103Z,20.92
2022-10-26T12:52:27.753Z,20.80
2022-10-26T13:04:28.132Z,21.80
2022-10-26T13:09:55.709Z,22.70
2022-10-26T13:15:40.246Z,21.60
2022-10-26T13:21:24.475Z,22.67
2022-10-26T13:27:08.387Z,19.93
2022-10-26T13:32:33.331Z,19.63
2022-10-26T13:37:59.509Z,21.93
2022-10-26T13:43:28.691Z,23.57
2022-10-26T13:49:00.215Z,21.57
2022-10-26T13:54:46.532Z,22.30
2022-10-26T14:00:22.153Z,19.52
2022-10-26T14:05:46.368Z,21.05
2022-10-26T14:11:17.851Z,24.95
2022-10-26T14:16:44.562Z,28.20
2022-10-26T14:22:07.638Z,25.40
2022-10-26T14:27:34.791Z,32.40
2022-10-26T14:32:57.949Z,28.87
2022-10-26T14:38:27.770Z,21.07
2022-10-26T14:43:51.312Z,22.80
2022-10-26T14:49:19.155Z,25.85
2022-10-26T14:54:57.970Z,28.70
2022-10-26T15:00:30.783Z,20.40
2022-10-26T15:05:53.481Z,16.93
2022-10-26T15:11:22.027Z,19.07
2022-10-26T15:16:48.463Z,17.90
2022-10-26T15:22:11.617Z,27.57
2022-10-26T15:27:35.704Z,21.07
2022-10-26T15:32:59.313Z,17.87
2022-10-26T15:38:23.079Z,18.05
2022-10-26T15:43:45.332Z,24.00
2022-10-26T15:49:11.479Z,16.70
2022-10-26T15:54:34.152Z,23.30
2022-10-26T15:59:56.489Z,19.03
2022-10-26T16:05:20.015Z,17.52
2022-10-26T16:10:43.891Z,21.20
2022-10-26T16:16:06.438Z,25.40
2022-10-26T16:21:33.042Z,31.62
2022-10-26T16:26:55.355Z,23.10
2022-10-26T16:32:17.604Z,22.90
2022-10-26T16:37:41.354Z,22.27
2022-10-26T16:43:04.081Z,28.55
2022-10-26T16:48:27.138Z,28.00
2022-10-26T16:53:49.876Z,28.50
2022-10-26T16:59:12.563Z,25.92
2022-10-26T17:04:35.265Z,25.23
2022-10-26T17:09:57.521Z,31.20
2022-10-26T17:15:20.591Z,62.43
2022-10-26T17:26:11.532Z,35.03
2022-10-26T17:31:35.659Z,32.35
2022-10-26T17:36:57.806Z,37.67
2022-10-26T17:42:20.047Z,34.63
2022-10-26T17:47:42.575Z,41.80
2022-10-26T17:53:06.299Z,43.80
2022-10-26T17:58:29.533Z,42.75
2022-10-26T18:03:52.190Z,40.85
2022-10-26T18:09:20.450Z,42.80
2022-10-26T18:14:43.049Z,95.17
2022-10-26T18:20:05.516Z,41.98
2022-10-26T18:25:28.216Z,38.53
2022-10-26T18:30:50.366Z,37.78
2022-10-26T18:36:18.311Z,40.50
2022-10-26T18:41:41.066Z,32.98
2022-10-26T18:47:03.366Z,37.03
2022-10-26T18:52:28.312Z,36.93
2022-10-26T18:57:53.571Z,40.40
2022-10-26T19:03:17.413Z,34.53
2022-10-26T19:08:40.279Z,33.28
2022-10-26T19:14:03.218Z,40.98
2022-10-26T19:19:26.995Z,35.27
2022-10-26T19:24:49.634Z,41.23
2022-10-26T19:30:12.001Z,73.35
2022-10-26T19:41:06.838Z,35.55
2022-10-26T19:46:35.768Z,38.37
2022-10-26T19:51:58.322Z,68.50
2022-10-26T19:57:20.512Z,48.78
2022-10-26T20:02:42.735Z,79.53
2022-10-26T20:08:05.825Z,52.67
2022-10-26T20:13:29.787Z,53.28
2022-10-26T20:18:52.832Z,52.50
2022-10-26T20:24:25.221Z,51.70
2022-10-26T20:29:47.380Z,54.93
2022-10-26T20:35:10.172Z,69.87
2022-10-26T20:40:33.797Z,62.87
2022-10-26T20:51:56.794Z,50.50
2022-10-26T20:57:09.043Z,50.00
2022-10-26T21:02:31.249Z,88.03
2022-10-26T21:07:53.422Z,60.90
2022-10-26T21:13:15.643Z,44.07
2022-10-26T21:18:38.581Z,43.23
2022-10-26T21:24:00.742Z,45.08
2022-10-26T21:29:23.610Z,52.53
2022-10-26T21:34:46.312Z,47.58
2022-10-26T21:40:08.504Z,52.27
2022-10-26T21:45:31.351Z,55.45
2022-10-26T21:50:54.276Z,56.75
2022-10-26T21:56:23.280Z,51.85
2022-10-26T22:01:45.635Z,45.10
2022-10-26T22:07:08.078Z,39.78
2022-10-26T22:12:30.302Z,47.73
2022-10-26T22:17:54.237Z,46.00
2022-10-26T22:23:16.469Z,45.95
2022-10-26T22:28:42.648Z,40.27
2022-10-26T22:34:07.982Z,39.88
2022-10-26T22:39:30.865Z,43.27
2022-10-26T22:44:53.202Z,57.80
2022-10-26T22:50:15.953Z,39.00
2022-10-26T22:55:38.129Z,41.33
2022-10-26T23:01:00.323Z,38.02
2022-10-26T23:06:35.178Z,39.40
2022-10-26T23:11:57.739Z,37.00
2022-10-26T23:17:19.862Z,35.98
2022-10-26T23:22:42.022Z,42.93
2022-10-26T23:28:04.158Z,33.67
2022-10-26T23:33:26.665Z,33.27
2022-10-26T23:38:48.869Z,39.77
2022-10-26T23:44:11.221Z,48.33
2022-10-26T23:49:33.840Z,39.27
2022-10-26T23:54:56.002Z,44.70
